Time;durP1;ratioP1;P1;durP2;ratioP2;P2;SDS_P1;SDS_P2;PMS_P1;PMS_P2;Temp;Humidity;BMP_temperature;BMP_pressure;BME280_temperature;BME280_humidity;BME280_pressure;Samples;Min_cycle;Max_cycle;Signal;HPM_P1;HPM_P2
2021/01/04 00:05:40;;;;;;;6.70;6.20;;;;;;;3.76;75.86;99868.22;10336961;28;20096;-72
2021/01/04 00:10:58;;;;;;;8.00;7.30;;;;;;;3.77;75.84;99867.31;10261996;28;20054;-70
2021/01/04 00:16:18;;;;;;;7.70;7.03;;;;;;;3.76;75.40;99873.50;10368167;28;20057;-71
2021/01/04 00:21:33;;;;;;;7.85;7.20;;;;;;;3.73;75.69;99876.31;10356302;28;20050;-71
2021/01/04 00:26:39;;;;;;;7.38;6.68;;;;;;;3.71;75.73;99872.94;10313820;28;20097;-72
2021/01/04 00:31:44;;;;;;;8.13;7.43;;;;;;;3.72;76.07;99861.44;10332152;28;20090;-73
2021/01/04 00:36:48;;;;;;;8.45;7.65;;;;;;;3.81;75.51;99866.16;10320087;28;20053;-69
2021/01/04 00:42:01;;;;;;;9.18;8.27;;;;;;;3.83;75.01;99863.47;10319223;28;20113;-71
2021/01/04 00:47:12;;;;;;;7.72;7.03;;;;;;;3.82;74.98;99867.88;10322428;28;20046;-73
2021/01/04 00:52:35;;;;;;;8.48;7.65;;;;;;;3.85;75.33;99864.22;10319309;28;20057;-71
2021/01/04 00:58:07;;;;;;;8.35;7.55;;;;;;;3.80;75.68;99859.22;10348600;28;20054;-72
2021/01/04 01:03:22;;;;;;;8.02;7.25;;;;;;;3.83;75.38;99868.72;10356379;28;20081;-71
2021/01/04 01:08:25;;;;;;;;;;;;;;;3.79;75.39;99875.94;10363997;28;20102;-72
2021/01/04 01:13:51;;;;;;;8.15;7.35;;;;;;;3.74;75.61;99875.38;10364025;28;20401;-71
2021/01/04 01:19:22;;;;;;;8.63;7.85;;;;;;;3.83;75.73;99881.91;10359036;28;20053;-71
2021/01/04 01:24:25;;;;;;;9.43;8.43;;;;;;;3.81;75.44;99876.69;10352606;28;20466;-71
2021/01/04 01:30:03;;;;;;;8.65;7.85;;;;;;;3.81;75.30;99876.69;10361650;28;20539;-70
2021/01/04 01:35:12;;;;;;;8.60;7.60;;;;;;;3.81;75.30;99875.84;10355662;28;20049;-70
2021/01/04 01:40:44;;;;;;;8.38;7.57;;;;;;;3.80;75.53;99879.41;10351398;28;21735;-71
2021/01/04 01:45:59;;;;;;;8.98;8.18;;;;;;;3.79;75.80;99881.22;10315934;28;20058;-72
2021/01/04 01:51:27;;;;;;;9.10;8.20;;;;;;;3.75;75.60;99887.59;10315311;28;20109;-70
2021/01/04 01:57:03;;;;;;;8.75;7.88;;;;;;;3.70;75.97;99885.22;10317306;28;20547;-72
2021/01/04 02:02:23;;;;;;;9.23;8.32;;;;;;;3.75;75.72;99887.59;10328440;28;20061;-70
2021/01/04 02:08:05;;;;;;;7.85;7.15;;;;;;;3.63;76.04;99880.41;10313647;28;20062;-71
2021/01/04 02:13:22;;;;;;;8.77;7.97;;;;;;;3.65;76.34;99882.03;10289343;28;20057;-71
2021/01/04 02:18:32;;;;;;;9.38;8.48;;;;;;;3.65;76.18;99881.19;10334655;28;20511;-71
2021/01/04 02:23:39;;;;;;;8.80;8.05;;;;;;;3.65;75.90;99886.44;10349245;28;20450;-71
2021/01/04 02:28:51;;;;;;;9.13;8.27;;;;;;;3.64;76.08;99892.63;10355644;28;20057;-72
2021/01/04 02:33:54;;;;;;;8.93;8.13;;;;;;;3.58;75.94;99895.63;10379737;28;20050;-73
2021/01/04 02:39:19;;;;;;;9.32;8.43;;;;;;;3.57;76.69;99889.50;10372234;28;20042;-73
2021/01/04 02:44:23;;;;;;;8.98;8.07;;;;;;;3.59;76.68;99895.53;10390666;28;20030;-74
2021/01/04 02:49:34;;;;;;;8.07;7.28;;;;;;;3.58;76.51;99900.88;10350788;28;20109;-71
2021/01/04 02:54:47;;;;;;;9.25;8.35;;;;;;;3.51;76.36;99890.72;10341946;28;20065;-70
2021/01/04 02:59:55;;;;;;;9.57;8.57;;;;;;;3.60;76.55;99899.00;10337498;28;20116;-71
2021/01/04 03:04:58;;;;;;;10.70;8.38;;;;;;;3.52;76.32;99892.41;10355505;28;20042;-69
2021/01/04 03:10:18;;;;;;;9.43;8.52;;;;;;;3.52;76.81;99897.66;10303313;28;20093;-71
2021/01/04 03:15:24;;;;;;;10.05;8.75;;;;;;;3.50;76.72;99903.97;10299605;28;20073;-71
2021/01/04 03:20:26;;;;;;;9.75;8.15;;;;;;;3.48;76.88;99906.69;10309136;28;20058;-71
2021/01/04 03:25:27;;;;;;;10.45;9.45;;;;;;;3.50;76.65;99909.22;10297481;28;20058;-71
2021/01/04 03:30:29;;;;;;;10.57;9.48;;;;;;;3.46;76.82;99902.44;10296386;28;20053;-71
2021/01/04 03:35:30;;;;;;;9.90;8.90;;;;;;;3.43;76.82;99899.97;10301158;28;20042;-71
2021/01/04 03:40:32;;;;;;;9.75;8.75;;;;;;;3.41;77.32;99897.44;10305325;28;20039;-71
2021/01/04 03:45:33;;;;;;;10.25;9.25;;;;;;;3.45;77.12;99901.59;10327727;28;20049;-71
2021/01/04 03:50:34;;;;;;;10.27;9.27;;;;;;;3.49;77.01;99903.09;10313930;28;20050;-70
2021/01/04 03:55:39;;;;;;;9.95;8.95;;;;;;;3.40;76.79;99898.34;10309288;28;20038;-71
2021/01/04 04:00:40;;;;;;;9.90;8.90;;;;;;;3.41;76.83;99897.44;10291775;28;20130;-71
2021/01/04 04:05:41;;;;;;;10.35;9.35;;;;;;;3.42;77.13;99893.84;10298421;28;20042;-70
2021/01/04 04:10:43;;;;;;;10.27;9.13;;;;;;;3.45;77.03;99892.84;10303757;28;20046;-69
2021/01/04 04:15:44;;;;;;;12.55;11.25;;;;;;;3.40;77.42;99908.03;10313685;28;20137;-70
2021/01/04 04:20:45;;;;;;;10.40;9.38;;;;;;;3.44;76.91;99913.03;10309966;28;20054;-71
2021/01/04 04:25:46;;;;;;;11.77;9.25;;;;;;;3.44;77.30;99910.41;10305428;28;20077;-71
2021/01/04 04:30:47;;;;;;;11.25;10.05;;;;;;;3.38;77.35;99900.25;10301430;28;20482;-73
2021/01/04 04:35:51;;;;;;;11.05;9.93;;;;;;;3.36;77.23;99907.34;10308169;28;22581;-69
2021/01/04 04:40:52;;;;;;;11.45;10.27;;;;;;;3.35;77.68;99900.41;10316048;28;20054;-73
2021/01/04 04:45:55;;;;;;;11.23;10.07;;;;;;;3.32;77.77;99903.22;10321959;28;20137;-71
2021/01/04 04:51:12;;;;;;;11.48;10.38;;;;;;;3.35;77.93;99910.94;10308074;28;20207;-71
2021/01/04 04:56:25;;;;;;;11.25;9.73;;;;;;;3.41;77.56;99915.84;10310416;28;20093;-71
2021/01/04 05:01:47;;;;;;;11.38;10.00;;;;;;;3.37;77.79;99903.78;10312784;28;20149;-70
2021/01/04 05:06:55;;;;;;;12.38;11.07;;;;;;;3.39;77.72;99899.28;10316994;28;20332;-71
2021/01/04 05:12:15;;;;;;;12.32;10.82;;;;;;;3.40;77.50;99908.88;10323742;28;20124;-71
2021/01/04 05:17:35;;;;;;;12.55;10.77;;;;;;;3.38;77.74;99905.50;10356204;28;20073;-70
2021/01/04 05:22:55;;;;;;;13.65;10.73;;;;;;;3.40;77.81;99911.50;10310552;28;20038;-70
2021/01/04 05:28:08;;;;;;;12.63;10.13;;;;;;;3.43;77.69;99913.97;10351817;28;20046;-72
2021/01/04 05:33:46;;;;;;;13.27;10.95;;;;;;;3.43;77.50;99918.41;10314072;28;20135;-72
2021/01/04 05:39:06;;;;;;;11.93;10.68;;;;;;;3.48;77.35;99921.59;10343121;28;20046;-74
2021/01/04 05:44:25;;;;;;;12.13;10.82;;;;;;;3.39;77.61;99904.53;10360582;28;20061;-74
2021/01/04 05:49:35;;;;;;;12.05;10.60;;;;;;;3.43;77.31;99919.22;10350221;28;20050;-71
2021/01/04 05:54:37;;;;;;;12.23;11.00;;;;;;;3.48;77.55;99916.34;10339545;28;20042;-73
2021/01/04 05:59:50;;;;;;;12.02;10.57;;;;;;;3.49;77.48;99924.16;10318592;28;20101;-71
2021/01/04 06:04:52;;;;;;;12.25;11.05;;;;;;;3.46;77.51;99928.75;10308607;28;20058;-71
2021/01/04 06:09:55;;;;;;;12.02;10.40;;;;;;;3.52;77.61;99929.25;10297558;28;20085;-70
2021/01/04 06:14:58;;;;;;;12.32;11.02;;;;;;;3.55;77.62;99933.50;10295386;28;20678;-70
2021/01/04 06:20:09;;;;;;;11.25;9.98;;;;;;;3.68;76.95;99933.66;10317052;28;20050;-71
2021/01/04 06:25:14;;;;;;;11.90;10.55;;;;;;;3.68;76.73;99936.28;10322473;28;20067;-71
2021/01/04 06:30:31;;;;;;;11.40;9.73;;;;;;;3.67;76.88;99945.94;10315506;28;20052;-71
2021/01/04 06:35:34;;;;;;;12.00;10.77;;;;;;;3.68;76.70;99944.19;10316568;28;20050;-71
2021/01/04 06:40:42;;;;;;;11.75;10.45;;;;;;;3.69;76.47;99945.84;10314513;28;20112;-71
2021/01/04 06:45:55;;;;;;;13.73;10.93;;;;;;;3.69;76.71;99945.84;10315635;28;20050;-71
2021/01/04 06:51:31;;;;;;;13.60;11.35;;;;;;;3.73;76.82;99952.66;10308525;28;20207;-70
2021/01/04 06:56:58;;;;;;;12.77;11.43;;;;;;;3.71;76.31;99954.53;10315873;28;20069;-70
2021/01/04 07:02:18;;;;;;;12.88;11.25;;;;;;;3.66;76.51;99962.69;10308901;28;20516;-71
2021/01/04 07:07:38;;;;;;;13.07;11.10;;;;;;;3.69;76.33;99956.38;10317897;28;20052;-71
2021/01/04 07:13:07;;;;;;;12.52;11.00;;;;;;;3.74;76.19;99961.41;10316796;28;20038;-71
2021/01/04 07:18:34;;;;;;;12.75;11.20;;;;;;;3.73;76.38;99965.81;10312783;28;20049;-73
2021/01/04 07:23:44;;;;;;;13.05;11.57;;;;;;;3.73;76.84;99973.72;10314114;28;20543;-72
2021/01/04 07:29:13;;;;;;;10.90;9.77;;;;;;;3.81;76.63;99982.00;10316216;28;20496;-70
2021/01/04 07:34:37;;;;;;;12.38;10.85;;;;;;;3.79;76.30;99978.63;10312634;28;20681;-70
2021/01/04 07:39:51;;;;;;;12.38;10.45;;;;;;;3.73;76.28;99978.97;10313447;28;20121;-72
2021/01/04 07:45:18;;;;;;;12.32;10.85;;;;;;;3.77;76.49;99977.00;10315061;28;20458;-69
2021/01/04 07:50:36;;;;;;;15.32;12.32;;;;;;;3.77;76.20;99977.00;10312518;28;20232;-73
2021/01/04 07:56:05;;;;;;;11.02;9.82;;;;;;;3.75;75.95;99982.38;10315002;28;20061;-72
2021/01/04 08:01:34;;;;;;;11.73;10.40;;;;;;;3.73;76.02;99978.97;10310518;28;20089;-71
2021/01/04 08:06:51;;;;;;;11.13;10.02;;;;;;;3.73;76.40;99976.34;10343045;28;20034;-75
2021/01/04 08:11:55;;;;;;;13.90;11.50;;;;;;;3.78;76.01;99995.34;10338489;28;20046;-70
2021/01/04 08:17:10;;;;;;;12.52;10.57;;;;;;;3.79;75.92;99991.81;10315573;28;20062;-75
2021/01/04 08:22:33;;;;;;;12.48;10.27;;;;;;;3.75;75.86;99990.25;10363506;28;20039;-73
2021/01/04 08:27:56;;;;;;;12.48;11.07;;;;;;;3.72;75.98;99993.94;10361796;28;20050;-71
2021/01/04 08:33:19;;;;;;;11.80;10.60;;;;;;;3.77;76.26;99984.91;10322193;28;20583;-70
2021/01/04 08:38:29;;;;;;;12.98;10.50;;;;;;;3.77;76.15;99991.03;10314833;28;20265;-71
2021/01/04 08:43:43;;;;;;;11.00;9.25;;;;;;;3.79;75.62;99991.81;10313592;28;20058;-72
2021/01/04 08:48:45;;;;;;;11.05;9.90;;;;;;;3.76;75.78;99989.34;10358314;28;20046;-72
2021/01/04 08:54:24;;;;;;;11.27;10.07;;;;;;;3.77;76.10;99985.78;10329331;28;20054;-73
2021/01/04 08:59:32;;;;;;;12.82;10.38;;;;;;;3.86;75.80;99989.69;10340149;28;20134;-72
2021/01/04 09:04:37;;;;;;;11.23;9.93;;;;;;;3.81;76.06;99995.19;10344331;28;20030;-70
2021/01/04 09:10:03;;;;;;;11.25;9.82;;;;;;;3.83;75.82;99993.34;10324726;28;20431;-69
2021/01/04 09:15:07;;;;;;;11.48;9.43;;;;;;;3.86;75.59;100001.06;10310358;28;20109;-70
2021/01/04 09:20:17;;;;;;;12.13;10.13;;;;;;;3.93;75.62;100005.97;10322193;28;20065;-70
2021/01/04 09:25:26;;;;;;;10.63;9.52;;;;;;;3.87;75.92;100000.13;10327980;28;20045;-73
2021/01/04 09:30:28;;;;;;;11.63;9.77;;;;;;;3.87;75.67;100009.78;10323386;28;20448;-71
2021/01/04 09:35:40;;;;;;;11.40;9.70;;;;;;;3.91;75.67;99999.94;10318282;28;20675;-70
2021/01/04 09:40:48;;;;;;;13.38;11.30;;;;;;;3.99;75.45;100005.63;10320573;28;20046;-72
2021/01/04 09:45:51;;;;;;;11.10;9.80;;;;;;;4.03;75.06;100005.34;10318691;28;20057;-72
2021/01/04 09:51:01;;;;;;;10.02;8.82;;;;;;;4.08;74.64;100005.09;10321409;28;20045;-71
2021/01/04 09:56:11;;;;;;;9.77;8.75;;;;;;;4.13;74.57;100008.31;10318930;28;20922;-71
2021/01/04 10:01:17;;;;;;;10.88;8.82;;;;;;;4.12;74.59;100001.34;10321925;28;20055;-68
2021/01/04 10:06:22;;;;;;;10.82;9.77;;;;;;;4.13;74.71;99986.38;10315446;28;20108;-73
2021/01/04 10:11:23;;;;;;;9.37;8.23;;;;;;;4.15;74.73;99995.06;10317510;28;20100;-71
2021/01/04 10:16:28;;;;;;;9.60;8.60;;;;;;;4.18;74.38;99998.34;10320467;28;20133;-71
2021/01/04 10:21:36;;;;;;;10.27;8.75;;;;;;;4.23;74.50;99988.41;10322556;28;20290;-71
2021/01/04 10:26:43;;;;;;;10.02;8.65;;;;;;;4.30;74.21;99995.97;10322074;28;20129;-69
2021/01/04 10:31:45;;;;;;;10.60;8.45;;;;;;;4.29;74.16;99986.34;10324631;28;20448;-72
2021/01/04 10:37:01;;;;;;;9.13;8.20;;;;;;;4.19;74.37;99994.78;10340548;28;20092;-70
2021/01/04 10:42:22;;;;;;;10.25;8.40;;;;;;;4.21;74.50;99987.63;10332011;28;20057;-72
2021/01/04 10:47:42;;;;;;;10.50;8.82;;;;;;;4.29;73.84;99981.91;10354732;28;20078;-73
2021/01/04 10:53:06;;;;;;;9.95;8.73;;;;;;;4.35;73.67;99981.53;10325138;28;20681;-70
2021/01/04 10:58:27;;;;;;;9.50;8.50;;;;;;;4.39;73.83;99982.22;10351184;28;20041;-74
2021/01/04 11:03:29;;;;;;;10.30;8.50;;;;;;;4.36;73.86;99979.78;10345505;28;20042;-73
2021/01/04 11:08:32;;;;;;;9.93;8.30;;;;;;;4.42;73.29;99971.50;10340937;28;20054;-71
2021/01/04 11:13:34;;;;;;;9.27;8.18;;;;;;;4.53;73.09;99968.22;10325991;28;20058;-70
2021/01/04 11:18:54;;;;;;;9.10;7.53;;;;;;;4.52;73.36;99964.75;10319176;28;20053;-71
2021/01/04 11:23:56;;;;;;;8.70;7.80;;;;;;;4.62;72.59;99956.28;10320384;28;20703;-72
2021/01/04 11:28:57;;;;;;;9.60;8.13;;;;;;;4.72;72.39;99941.59;10319792;28;20538;-72
2021/01/04 11:33:59;;;;;;;10.45;7.07;;;;;;;4.69;72.55;99942.63;10325486;28;20083;-70
2021/01/04 11:39:00;;;;;;;7.80;6.72;;;;;;;4.77;73.07;99944.78;10318104;28;20188;-70
2021/01/04 11:44:02;;;;;;;8.07;7.28;;;;;;;4.65;72.87;99945.56;10319934;28;20066;-71
2021/01/04 11:49:04;;;;;;;7.60;6.80;;;;;;;4.74;72.49;99939.72;10313721;28;20096;-71
2021/01/04 11:54:06;;;;;;;8.98;8.05;;;;;;;4.76;71.52;99949.22;10319394;28;20050;-71
2021/01/04 11:59:07;;;;;;;9.05;8.15;;;;;;;4.76;71.52;99951.88;10328959;28;20550;-71
2021/01/04 12:04:09;;;;;;;8.57;7.28;;;;;;;4.77;71.68;99944.78;10357299;28;20054;-69
2021/01/04 12:09:11;;;;;;;8.30;7.40;;;;;;;4.75;72.06;99942.25;10339040;28;20394;-68
2021/01/04 12:14:12;;;;;;;8.48;7.65;;;;;;;4.74;71.95;99929.16;10318833;28;20081;-70
2021/01/04 12:19:14;;;;;;;8.23;7.35;;;;;;;4.75;72.35;99922.97;10318156;28;20055;-69
2021/01/04 12:24:15;;;;;;;8.43;7.28;;;;;;;4.81;71.72;99919.09;10315334;28;20128;-69
2021/01/04 12:29:18;;;;;;;9.00;8.10;;;;;;;4.65;72.21;99912.13;10319253;28;20057;-69
2021/01/04 12:34:19;;;;;;;8.88;7.55;;;;;;;4.59;72.22;99916.00;10320508;28;20498;-71
2021/01/04 12:39:20;;;;;;;9.57;7.43;;;;;;;4.62;72.09;99914.09;10324905;28;20145;-69
2021/01/04 12:44:22;;;;;;;10.38;8.25;;;;;;;4.64;72.20;99901.66;10318366;28;20057;-70
2021/01/04 12:49:24;;;;;;;8.20;7.40;;;;;;;4.54;72.82;99910.13;10324123;28;20136;-72
2021/01/04 12:54:29;;;;;;;9.88;7.65;;;;;;;4.62;71.86;99919.38;10325552;28;20058;-70
2021/01/04 12:59:36;;;;;;;9.45;7.60;;;;;;;4.65;71.69;99912.13;10339980;28;20060;-69
2021/01/04 13:04:42;;;;;;;9.27;7.88;;;;;;;4.69;72.10;99910.16;10323943;28;20046;-71
2021/01/04 13:09:44;;;;;;;9.30;7.78;;;;;;;4.73;71.69;99906.41;10318520;28;20743;-69
2021/01/04 13:14:46;;;;;;;9.32;8.43;;;;;;;4.69;72.12;99902.25;10322750;28;20057;-70
2021/01/04 13:19:48;;;;;;;8.60;7.10;;;;;;;4.71;71.61;99903.81;10325481;28;20057;-69
2021/01/04 13:24:49;;;;;;;8.35;7.28;;;;;;;4.72;71.66;99904.69;10345171;28;20054;-70
2021/01/04 13:29:52;;;;;;;9.15;8.15;;;;;;;4.64;71.50;99901.66;10323608;28;20056;-70
2021/01/04 13:34:53;;;;;;;9.90;7.47;;;;;;;4.67;71.43;99898.84;10333038;28;20041;-72
2021/01/04 13:39:55;;;;;;;9.35;7.53;;;;;;;4.69;71.24;99889.91;10352013;28;20069;-71
2021/01/04 13:44:56;;;;;;;8.15;7.35;;;;;;;4.72;71.16;99894.16;10357913;28;20566;-71
2021/01/04 13:49:57;;;;;;;7.50;6.75;;;;;;;4.72;70.83;99894.16;10327656;28;20446;-71
2021/01/04 13:54:58;;;;;;;8.95;8.05;;;;;;;4.70;70.97;99888.09;10320637;28;20112;-71
2021/01/04 14:00:00;;;;;;;8.25;7.38;;;;;;;4.66;70.85;99889.25;10331768;28;20077;-72
2021/01/04 14:05:01;;;;;;;7.85;6.82;;;;;;;4.67;71.21;99890.94;10327601;28;20050;-71
2021/01/04 14:10:03;;;;;;;8.95;7.00;;;;;;;4.62;71.36;99883.31;10323735;28;20054;-73
2021/01/04 14:15:05;;;;;;;8.32;7.38;;;;;;;4.66;71.22;99889.25;10319670;28;20054;-69
2021/01/04 14:20:12;;;;;;;8.45;7.05;;;;;;;4.62;71.34;99893.00;10317765;28;20515;-71
2021/01/04 14:25:14;;;;;;;9.82;7.90;;;;;;;4.69;70.94;99891.69;10332990;28;20104;-70
2021/01/04 14:30:16;;;;;;;8.95;6.93;;;;;;;4.68;70.53;99903.19;10346573;28;20045;-73
2021/01/04 14:35:17;;;;;;;8.50;6.85;;;;;;;4.64;71.14;99896.38;10349010;28;20049;-72
2021/01/04 14:40:18;;;;;;;7.80;6.60;;;;;;;4.66;70.90;99910.34;10345184;28;20618;-71
2021/01/04 14:45:20;;;;;;;8.25;6.97;;;;;;;4.64;71.34;99910.44;10354957;28;20080;-70
2021/01/04 14:50:21;;;;;;;8.48;6.90;;;;;;;4.60;71.27;99919.47;10340764;28;20054;-71
2021/01/04 14:55:22;;;;;;;9.05;7.25;;;;;;;4.57;71.72;99922.28;10338353;28;20061;-71
2021/01/04 15:00:24;;;;;;;8.23;7.35;;;;;;;4.57;71.89;99915.22;10336277;28;20181;-71
2021/01/04 15:05:25;;;;;;;6.75;6.13;;;;;;;4.59;71.56;99921.28;10349503;28;20054;-69
2021/01/04 15:10:28;;;;;;;7.20;6.45;;;;;;;4.59;71.83;99923.91;10351740;28;20050;-69
2021/01/04 15:15:29;;;;;;;8.93;7.53;;;;;;;4.59;71.73;99925.66;10332954;28;20054;-73
2021/01/04 15:20:30;;;;;;;6.57;5.97;;;;;;;4.58;71.60;99919.56;10315075;28;20103;-69
2021/01/04 15:25:34;;;;;;;8.23;6.82;;;;;;;4.58;71.53;99918.72;10316599;28;20058;-69
2021/01/04 15:30:35;;;;;;;8.05;7.25;;;;;;;4.56;71.86;99915.31;10320728;28;20259;-70
2021/01/04 15:35:36;;;;;;;9.32;7.30;;;;;;;4.57;71.42;99923.13;10315782;28;20505;-70
2021/01/04 15:40:37;;;;;;;8.73;6.90;;;;;;;4.55;71.56;99911.84;10317242;28;20465;-71
2021/01/04 15:45:39;;;;;;;8.48;7.20;;;;;;;4.52;71.81;99913.81;10320500;28;20048;-69
2021/01/04 15:50:40;;;;;;;7.97;7.18;;;;;;;4.50;72.21;99905.97;10319706;28;20064;-72
2021/01/04 15:55:41;;;;;;;8.80;7.75;;;;;;;4.49;72.46;99906.09;10317769;28;20125;-69
2021/01/04 16:00:42;;;;;;;8.25;7.47;;;;;;;4.51;72.10;99912.13;10346373;28;20077;-73
2021/01/04 16:05:44;;;;;;;7.57;6.78;;;;;;;4.63;73.80;99908.72;10363988;28;20061;-71
2021/01/04 16:10:46;;;;;;;10.30;7.82;;;;;;;4.59;71.97;99916.00;10328522;28;20051;-71
2021/01/04 16:15:48;;;;;;;9.48;8.02;;;;;;;4.56;72.13;99910.03;10334273;28;20038;-71
2021/01/04 16:20:49;;;;;;;8.80;7.90;;;;;;;4.50;72.23;99905.97;10348827;28;20081;-71
2021/01/04 16:25:50;;;;;;;8.27;7.47;;;;;;;4.45;72.35;99900.16;10278847;23;20042;-60
2021/01/04 16:30:52;;;;;;;9.07;7.88;;;;;;;4.48;72.22;99897.34;10308449;28;20171;-59
2021/01/04 16:35:54;;;;;;;10.30;8.25;;;;;;;4.49;72.27;99906.09;10313014;28;20558;-60
2021/01/04 16:40:55;;;;;;;9.18;8.27;;;;;;;4.47;72.51;99895.63;10313391;28;20057;-60
2021/01/04 16:45:58;;;;;;;9.35;8.23;;;;;;;4.39;72.58;99898.72;10309682;28;20050;-59
2021/01/04 16:50:59;;;;;;;9.75;8.27;;;;;;;4.36;72.87;99895.44;10311355;28;20136;-60
2021/01/04 16:56:00;;;;;;;8.70;7.80;;;;;;;4.34;73.13;99903.44;10313945;28;20113;-60
2021/01/04 17:01:01;;;;;;;9.15;8.15;;;;;;;4.38;72.79;99912.00;10313235;28;20054;-60
2021/01/04 17:06:03;;;;;;;9.52;8.45;;;;;;;4.40;72.53;99900.44;10338762;28;20042;-59
2021/01/04 17:11:04;;;;;;;8.95;8.05;;;;;;;4.42;72.63;99908.25;10317189;28;20735;-62
2021/01/04 17:16:05;;;;;;;10.43;8.63;;;;;;;4.39;72.49;99909.28;10312335;28;20065;-60
2021/01/04 17:21:09;;;;;;;8.32;7.53;;;;;;;4.38;72.21;99909.38;10319207;28;20337;-61
2021/01/04 17:26:10;;;;;;;9.88;8.23;;;;;;;4.36;71.99;99903.34;10318953;28;20558;-60
2021/01/04 17:31:16;;;;;;;9.43;8.20;;;;;;;4.40;71.93;99915.41;10320498;28;20172;-60
2021/01/04 17:36:18;;;;;;;9.32;8.32;;;;;;;4.34;72.38;99914.00;10324231;28;20046;-59
2021/01/04 17:41:22;;;;;;;10.23;9.23;;;;;;;4.40;71.87;99921.53;10319041;28;20056;-59
2021/01/04 17:46:30;;;;;;;8.93;7.43;;;;;;;4.39;71.72;99924.25;10317195;28;20050;-60
2021/01/04 17:51:31;;;;;;;9.50;8.60;;;;;;;4.41;71.65;99925.00;10316968;28;20571;-59
2021/01/04 17:56:33;;;;;;;9.52;8.52;;;;;;;4.36;71.60;99924.44;10316755;28;20140;-60
2021/01/04 18:01:34;;;;;;;8.55;7.53;;;;;;;4.27;72.01;99919.72;10314724;28;20522;-59
2021/01/04 18:06:35;;;;;;;9.85;8.77;;;;;;;4.24;72.44;99923.38;10316938;28;20358;-60
2021/01/04 18:11:37;;;;;;;10.27;8.32;;;;;;;4.29;72.09;99931.84;10320009;28;20049;-60
2021/01/04 18:16:38;;;;;;;12.75;8.50;;;;;;;4.23;72.20;99925.19;10312863;28;20061;-61
2021/01/04 18:21:42;;;;;;;10.38;9.32;;;;;;;4.28;72.28;99939.84;10325183;28;20113;-59
2021/01/04 18:26:45;;;;;;;11.40;10.20;;;;;;;4.20;72.36;99917.47;10316430;28;20310;-60
2021/01/04 18:31:49;;;;;;;8.75;7.93;;;;;;;4.31;72.17;99934.38;10320718;28;20106;-60
2021/01/04 18:36:53;;;;;;;7.30;6.47;;;;;;;4.35;71.91;99933.28;10322492;28;20049;-59
2021/01/04 18:41:55;;;;;;;9.43;8.38;;;;;;;4.34;71.65;99921.03;10325015;28;21628;-59
2021/01/04 18:46:56;;;;;;;9.63;8.63;;;;;;;4.39;71.11;99932.16;10319296;28;20422;-60
2021/01/04 18:52:03;;;;;;;9.88;8.85;;;;;;;4.22;71.46;99906.81;10319843;28;20502;-60
2021/01/04 18:57:05;;;;;;;10.27;9.02;;;;;;;4.31;71.21;99921.22;10338646;28;20085;-60
2021/01/04 19:02:06;;;;;;;9.13;8.25;;;;;;;4.27;71.45;99919.72;10328723;28;20476;-62
2021/01/04 19:07:09;;;;;;;10.30;8.77;;;;;;;4.27;71.60;99919.72;10312964;28;20057;-59
2021/01/04 19:12:11;;;;;;;11.23;8.80;;;;;;;4.28;71.48;99921.41;10317388;28;20414;-60
2021/01/04 19:17:13;;;;;;;11.30;10.07;;;;;;;4.27;71.75;99919.72;10311667;28;20184;-60
2021/01/04 19:22:14;;;;;;;11.27;9.98;;;;;;;4.25;71.46;99911.91;10320755;28;20073;-59
2021/01/04 19:27:19;;;;;;;10.68;9.43;;;;;;;4.23;71.36;99913.78;10314473;28;20077;-59
2021/01/04 19:32:20;;;;;;;11.65;10.25;;;;;;;4.19;71.35;99910.47;10319313;28;20058;-59
2021/01/04 19:37:21;;;;;;;11.65;10.05;;;;;;;4.20;71.15;99913.94;10320259;28;20065;-60
2021/01/04 19:42:23;;;;;;;11.80;10.32;;;;;;;4.22;71.25;99917.38;10318390;28;20057;-60
2021/01/04 19:47:25;;;;;;;12.32;10.73;;;;;;;4.18;71.43;99921.94;10317544;28;20062;-61
2021/01/04 19:52:26;;;;;;;12.70;11.40;;;;;;;4.17;71.32;99914.97;10312427;28;20046;-60
2021/01/04 19:57:28;;;;;;;11.90;10.63;;;;;;;4.14;71.26;99920.44;10316735;28;20554;-60
2021/01/04 20:02:29;;;;;;;12.57;11.05;;;;;;;4.09;71.71;99906.69;10303657;28;20136;-61
2021/01/04 20:07:32;;;;;;;12.95;11.63;;;;;;;4.14;71.11;99920.44;10313653;28;20046;-63
2021/01/04 20:12:33;;;;;;;13.45;11.57;;;;;;;4.12;71.60;99917.03;10316136;28;20049;-60
2021/01/04 20:17:34;;;;;;;12.25;10.80;;;;;;;3.98;72.18;99917.00;10313452;28;21657;-59
2021/01/04 20:22:39;;;;;;;11.70;10.52;;;;;;;3.98;72.46;99919.63;10316741;28;20120;-59
2021/01/04 20:27:43;;;;;;;13.10;10.73;;;;;;;3.99;71.99;99910.81;10316642;28;20270;-60
2021/01/04 20:32:45;;;;;;;12.02;10.45;;;;;;;4.00;71.59;99896.69;10314706;28;20131;-60
2021/01/04 20:37:46;;;;;;;12.15;10.68;;;;;;;4.07;71.34;99916.47;10315442;28;20511;-60
2021/01/04 20:42:47;;;;;;;14.38;11.52;;;;;;;4.09;71.54;99911.97;10311371;28;20058;-62
2021/01/04 20:47:49;;;;;;;12.27;10.40;;;;;;;4.09;71.58;99911.97;10313595;28;20046;-60
2021/01/04 20:52:51;;;;;;;11.70;10.57;;;;;;;4.14;71.33;99901.16;10321676;28;20061;-60
2021/01/04 20:57:52;;;;;;;14.93;11.98;;;;;;;4.13;71.27;99908.22;10316033;28;20041;-60
2021/01/04 21:02:53;;;;;;;12.82;11.10;;;;;;;4.17;71.19;99900.97;10325473;28;20331;-59
2021/01/04 21:07:54;;;;;;;13.88;11.43;;;;;;;4.13;71.25;99897.69;10322569;28;20115;-60
2021/01/04 21:12:56;;;;;;;13.73;11.57;;;;;;;4.11;71.22;99894.28;10320780;28;20057;-59
2021/01/04 21:18:04;;;;;;;11.95;10.55;;;;;;;4.08;71.42;99891.81;10319111;28;20572;-60
2021/01/04 21:23:06;;;;;;;12.82;11.43;;;;;;;4.08;71.22;99894.44;10337799;28;20049;-60
2021/01/04 21:28:08;;;;;;;20.23;14.43;;;;;;;4.01;71.99;99890.50;10338829;28;20112;-60
2021/01/04 21:33:10;;;;;;;20.13;14.43;;;;;;;4.16;71.17;99899.25;10317822;28;20057;-60
2021/01/04 21:38:11;;;;;;;14.82;11.82;;;;;;;4.09;71.26;99896.16;10335821;28;20052;-61
2021/01/04 21:43:13;;;;;;;15.07;12.68;;;;;;;4.06;71.14;99893.69;10338295;28;20042;-60
2021/01/04 21:48:14;;;;;;;13.75;11.27;;;;;;;4.01;71.57;99890.50;10346007;28;20472;-60
2021/01/04 21:53:15;;;;;;;14.68;11.25;;;;;;;4.04;71.09;99904.34;10353367;28;20045;-61
2021/01/04 21:58:16;;;;;;;13.88;11.07;;;;;;;4.06;71.42;99901.59;10355089;28;20156;-60
2021/01/04 22:03:17;;;;;;;14.15;12.48;;;;;;;3.92;71.46;99884.00;10349416;28;20081;-60
2021/01/04 22:08:19;;;;;;;13.05;11.10;;;;;;;4.05;71.56;99899.91;10348306;28;20119;-63
2021/01/04 22:13:20;;;;;;;15.52;12.30;;;;;;;4.09;71.39;99909.31;10350150;28;20116;-60
2021/01/04 22:18:22;;;;;;;13.85;11.48;;;;;;;4.00;71.49;99901.97;10351951;28;20057;-59
2021/01/04 22:28:32;;;;;;;15.27;11.98;;;;;;;3.91;71.69;99886.72;10198148;28;20047;-61
2021/01/04 22:33:34;;;;;;;13.90;10.75;;;;;;;4.00;71.33;99891.44;10212811;28;20508;-62
2021/01/04 22:38:35;;;;;;;14.98;11.45;;;;;;;4.06;71.24;99896.34;10221692;28;20468;-62
2021/01/04 22:43:37;;;;;;;13.38;10.57;;;;;;;4.02;71.20;99900.09;10210348;28;20051;-61
2021/01/04 22:48:38;;;;;;;13.68;10.60;;;;;;;3.92;71.34;99886.63;10218780;28;20097;-61
2021/01/04 22:53:40;;;;;;;12.35;10.73;;;;;;;3.96;71.36;99884.66;10224105;28;20336;-61
2021/01/04 22:58:43;;;;;;;16.13;11.40;;;;;;;3.94;71.65;99876.00;10222425;28;20046;-61
2021/01/04 23:03:44;;;;;;;16.48;11.77;;;;;;;3.91;71.89;99878.81;10236503;28;20119;-59
2021/01/04 23:08:46;;;;;;;14.15;11.15;;;;;;;3.94;72.05;99876.84;10226944;28;20059;-60
2021/01/04 23:13:48;;;;;;;15.63;12.90;;;;;;;3.78;72.12;99863.72;10220733;28;20523;-61
2021/01/04 23:18:49;;;;;;;14.60;12.18;;;;;;;3.84;72.04;99876.53;10226755;28;20346;-62
2021/01/04 23:23:52;;;;;;;13.85;11.18;;;;;;;3.75;72.43;99863.91;10225091;28;20109;-60
2021/01/04 23:28:53;;;;;;;15.18;11.15;;;;;;;3.76;72.36;99854.22;10252296;28;20081;-60
2021/01/04 23:33:55;;;;;;;13.77;11.02;;;;;;;3.81;72.07;99860.06;10259969;28;20480;-60
2021/01/04 23:38:56;;;;;;;13.77;11.32;;;;;;;3.85;72.04;99872.94;10262582;28;20080;-60
2021/01/04 23:43:58;;;;;;;14.73;12.10;;;;;;;3.86;72.32;99864.13;10264877;28;20050;-61
2021/01/04 23:49:00;;;;;;;15.60;11.50;;;;;;;3.86;72.00;99864.13;10256898;28;20058;-62
2021/01/04 23:54:01;;;;;;;13.70;11.35;;;;;;;3.85;71.93;99851.88;10262004;28;20543;-60
2021/01/04 23:59:03;;;;;;;15.65;11.63;;;;;;;3.94;71.83;99854.94;10264549;28;20265;-61
